sensor_id;sensor_type;location;lat;lon;timestamp;P1;durP1;ratioP1;P2;durP2;ratioP2
74459;SDS011;62902;48.854;9.292;2023-03-23T00:04:51;32.85;;;29.73;;
74459;SDS011;62902;48.854;9.292;2023-03-23T00:07:16;38.40;;;32.17;;
74459;SDS011;62902;48.854;9.292;2023-03-23T00:09:49;63.00;;;46.60;;
74459;SDS011;62902;48.854;9.292;2023-03-23T00:12:23;27.95;;;24.88;;
74459;SDS011;62902;48.854;9.292;2023-03-23T00:15:00;32.13;;;28.20;;
74459;SDS011;62902;48.854;9.292;2023-03-23T00:17:29;56.42;;;45.22;;
74459;SDS011;62902;48.854;9.292;2023-03-23T00:19:58;108.70;;;64.95;;
74459;SDS011;62902;48.854;9.292;2023-03-23T00:22:26;97.35;;;61.42;;
74459;SDS011;62902;48.854;9.292;2023-03-23T00:24:52;37.22;;;30.88;;
74459;SDS011;62902;48.854;9.292;2023-03-23T00:27:18;44.45;;;28.95;;
74459;SDS011;62902;48.854;9.292;2023-03-23T00:29:43;266.23;;;131.00;;
74459;SDS011;62902;48.854;9.292;2023-03-23T00:32:12;583.70;;;284.10;;
74459;SDS011;62902;48.854;9.292;2023-03-23T00:34:39;552.70;;;270.92;;
74459;SDS011;62902;48.854;9.292;2023-03-23T00:37:06;558.22;;;290.35;;
74459;SDS011;62902;48.854;9.292;2023-03-23T00:39:32;577.65;;;299.80;;
74459;SDS011;62902;48.854;9.292;2023-03-23T00:41:58;222.95;;;119.43;;
74459;SDS011;62902;48.854;9.292;2023-03-23T00:44:27;36.28;;;17.25;;
74459;SDS011;62902;48.854;9.292;2023-03-23T00:46:53;33.08;;;29.90;;
74459;SDS011;62902;48.854;9.292;2023-03-23T00:49:21;6.28;;;2.65;;
74459;SDS011;62902;48.854;9.292;2023-03-23T00:51:52;5.50;;;2.08;;
74459;SDS011;62902;48.854;9.292;2023-03-23T00:54:18;5.38;;;2.03;;
74459;SDS011;62902;48.854;9.292;2023-03-23T00:56:48;3.55;;;1.38;;
74459;SDS011;62902;48.854;9.292;2023-03-23T00:59:14;3.35;;;1.50;;
74459;SDS011;62902;48.854;9.292;2023-03-23T01:01:39;3.67;;;1.27;;
74459;SDS011;62902;48.854;9.292;2023-03-23T01:04:05;2.95;;;1.10;;
74459;SDS011;62902;48.854;9.292;2023-03-23T01:06:34;3.85;;;1.60;;
74459;SDS011;62902;48.854;9.292;2023-03-23T01:09:04;3.92;;;1.58;;
74459;SDS011;62902;48.854;9.292;2023-03-23T01:11:31;3.45;;;1.27;;
74459;SDS011;62902;48.854;9.292;2023-03-23T01:13:57;4.70;;;1.73;;
74459;SDS011;62902;48.854;9.292;2023-03-23T01:16:22;4.25;;;1.77;;
74459;SDS011;62902;48.854;9.292;2023-03-23T01:18:48;3.40;;;1.13;;
74459;SDS011;62902;48.854;9.292;2023-03-23T01:21:14;6.75;;;2.25;;
74459;SDS011;62902;48.854;9.292;2023-03-23T01:26:12;17.77;;;10.35;;
74459;SDS011;62902;48.854;9.292;2023-03-23T01:28:39;440.13;;;238.85;;
74459;SDS011;62902;48.854;9.292;2023-03-23T01:31:09;525.28;;;261.38;;
74459;SDS011;62902;48.854;9.292;2023-03-23T01:33:39;114.82;;;49.80;;
74459;SDS011;62902;48.854;9.292;2023-03-23T01:36:07;3.33;;;1.30;;
74459;SDS011;62902;48.854;9.292;2023-03-23T01:38:36;3.83;;;1.10;;
74459;SDS011;62902;48.854;9.292;2023-03-23T01:41:02;2.20;;;1.00;;
74459;SDS011;62902;48.854;9.292;2023-03-23T01:43:28;2.85;;;1.00;;
74459;SDS011;62902;48.854;9.292;2023-03-23T01:45:54;74.22;;;33.53;;
74459;SDS011;62902;48.854;9.292;2023-03-23T01:48:35;458.92;;;212.05;;
74459;SDS011;62902;48.854;9.292;2023-03-23T01:51:20;436.27;;;197.30;;
74459;SDS011;62902;48.854;9.292;2023-03-23T01:53:51;410.33;;;186.63;;
74459;SDS011;62902;48.854;9.292;2023-03-23T01:56:22;360.58;;;166.88;;
74459;SDS011;62902;48.854;9.292;2023-03-23T01:58:52;392.05;;;183.13;;
74459;SDS011;62902;48.854;9.292;2023-03-23T02:01:19;3.30;;;1.20;;
74459;SDS011;62902;48.854;9.292;2023-03-23T02:03:46;2.63;;;1.02;;
74459;SDS011;62902;48.854;9.292;2023-03-23T02:06:13;6.30;;;1.30;;
74459;SDS011;62902;48.854;9.292;2023-03-23T02:09:05;4.80;;;1.00;;
74459;SDS011;62902;48.854;9.292;2023-03-23T02:11:32;3.13;;;1.30;;
74459;SDS011;62902;48.854;9.292;2023-03-23T02:13:58;2.97;;;0.95;;
74459;SDS011;62902;48.854;9.292;2023-03-23T02:36:19;3.63;;;1.40;;
74459;SDS011;62902;48.854;9.292;2023-03-23T02:38:55;3.30;;;1.23;;
74459;SDS011;62902;48.854;9.292;2023-03-23T02:43:51;2.58;;;1.17;;
74459;SDS011;62902;48.854;9.292;2023-03-23T02:46:17;3.45;;;1.08;;
74459;SDS011;62902;48.854;9.292;2023-03-23T02:48:44;2.13;;;0.90;;
74459;SDS011;62902;48.854;9.292;2023-03-23T02:51:14;3.63;;;1.02;;
74459;SDS011;62902;48.854;9.292;2023-03-23T02:53:41;4.40;;;1.60;;
74459;SDS011;62902;48.854;9.292;2023-03-23T02:58:34;3.05;;;1.25;;
74459;SDS011;62902;48.854;9.292;2023-03-23T03:01:12;3.40;;;1.10;;
74459;SDS011;62902;48.854;9.292;2023-03-23T03:03:42;2.40;;;1.20;;
74459;SDS011;62902;48.854;9.292;2023-03-23T03:06:14;3.42;;;1.20;;
74459;SDS011;62902;48.854;9.292;2023-03-23T03:09:02;3.30;;;1.30;;
74459;SDS011;62902;48.854;9.292;2023-03-23T03:11:33;3.72;;;1.33;;
74459;SDS011;62902;48.854;9.292;2023-03-23T03:14:07;2.47;;;0.90;;
74459;SDS011;62902;48.854;9.292;2023-03-23T03:19:08;1.83;;;0.88;;
74459;SDS011;62902;48.854;9.292;2023-03-23T03:21:38;1.95;;;0.82;;
74459;SDS011;62902;48.854;9.292;2023-03-23T03:24:07;3.05;;;1.05;;
74459;SDS011;62902;48.854;9.292;2023-03-23T03:26:40;3.58;;;1.25;;
74459;SDS011;62902;48.854;9.292;2023-03-23T03:29:21;2.03;;;0.88;;
74459;SDS011;62902;48.854;9.292;2023-03-23T03:31:51;2.60;;;0.77;;
74459;SDS011;62902;48.854;9.292;2023-03-23T03:34:20;3.13;;;1.00;;
74459;SDS011;62902;48.854;9.292;2023-03-23T03:36:47;2.05;;;0.90;;
74459;SDS011;62902;48.854;9.292;2023-03-23T03:39:15;4.70;;;1.00;;
74459;SDS011;62902;48.854;9.292;2023-03-23T03:41:42;1.80;;;0.80;;
74459;SDS011;62902;48.854;9.292;2023-03-23T03:44:08;2.00;;;0.90;;
74459;SDS011;62902;48.854;9.292;2023-03-23T03:46:34;2.65;;;0.80;;
74459;SDS011;62902;48.854;9.292;2023-03-23T03:49:01;1.80;;;0.73;;
74459;SDS011;62902;48.854;9.292;2023-03-23T03:51:28;2.17;;;0.88;;
74459;SDS011;62902;48.854;9.292;2023-03-23T03:53:55;2.38;;;0.95;;
74459;SDS011;62902;48.854;9.292;2023-03-23T03:56:21;2.58;;;0.90;;
74459;SDS011;62902;48.854;9.292;2023-03-23T03:58:58;2.85;;;1.08;;
74459;SDS011;62902;48.854;9.292;2023-03-23T04:01:40;4.13;;;1.17;;
74459;SDS011;62902;48.854;9.292;2023-03-23T04:04:06;2.80;;;1.00;;
74459;SDS011;62902;48.854;9.292;2023-03-23T04:09:02;2.58;;;1.00;;
74459;SDS011;62902;48.854;9.292;2023-03-23T04:11:32;2.58;;;1.00;;
74459;SDS011;62902;48.854;9.292;2023-03-23T04:14:16;1.67;;;0.90;;
74459;SDS011;62902;48.854;9.292;2023-03-23T04:16:43;2.60;;;1.30;;
74459;SDS011;62902;48.854;9.292;2023-03-23T04:19:09;4.07;;;1.25;;
74459;SDS011;62902;48.854;9.292;2023-03-23T04:21:35;3.33;;;1.10;;
74459;SDS011;62902;48.854;9.292;2023-03-23T04:24:01;3.00;;;1.20;;
74459;SDS011;62902;48.854;9.292;2023-03-23T04:26:29;3.90;;;1.13;;
74459;SDS011;62902;48.854;9.292;2023-03-23T04:29:01;2.80;;;1.20;;
74459;SDS011;62902;48.854;9.292;2023-03-23T04:31:51;2.33;;;0.90;;
74459;SDS011;62902;48.854;9.292;2023-03-23T04:34:33;2.42;;;1.05;;
74459;SDS011;62902;48.854;9.292;2023-03-23T04:37:00;3.17;;;0.75;;
74459;SDS011;62902;48.854;9.292;2023-03-23T04:39:27;2.17;;;1.00;;
74459;SDS011;62902;48.854;9.292;2023-03-23T04:41:56;4.22;;;1.40;;
74459;SDS011;62902;48.854;9.292;2023-03-23T04:44:44;2.97;;;1.10;;
74459;SDS011;62902;48.854;9.292;2023-03-23T04:47:20;4.40;;;1.00;;
74459;SDS011;62902;48.854;9.292;2023-03-23T04:49:52;1.75;;;0.93;;
74459;SDS011;62902;48.854;9.292;2023-03-23T04:52:25;2.80;;;1.10;;
74459;SDS011;62902;48.854;9.292;2023-03-23T04:54:59;2.88;;;1.00;;
74459;SDS011;62902;48.854;9.292;2023-03-23T04:57:27;3.30;;;1.17;;
74459;SDS011;62902;48.854;9.292;2023-03-23T05:00:19;2.00;;;1.00;;
74459;SDS011;62902;48.854;9.292;2023-03-23T05:02:49;2.65;;;1.10;;
74459;SDS011;62902;48.854;9.292;2023-03-23T05:05:18;2.47;;;0.98;;
74459;SDS011;62902;48.854;9.292;2023-03-23T05:07:45;1.90;;;1.00;;
74459;SDS011;62902;48.854;9.292;2023-03-23T05:10:13;3.67;;;1.05;;
74459;SDS011;62902;48.854;9.292;2023-03-23T05:12:39;5.63;;;1.13;;
74459;SDS011;62902;48.854;9.292;2023-03-23T05:15:07;4.57;;;1.17;;
74459;SDS011;62902;48.854;9.292;2023-03-23T05:17:34;2.22;;;0.95;;
74459;SDS011;62902;48.854;9.292;2023-03-23T05:20:04;2.17;;;0.93;;
74459;SDS011;62902;48.854;9.292;2023-03-23T05:22:43;2.33;;;0.90;;
74459;SDS011;62902;48.854;9.292;2023-03-23T05:25:17;3.05;;;1.10;;
74459;SDS011;62902;48.854;9.292;2023-03-23T05:27:51;4.32;;;1.33;;
74459;SDS011;62902;48.854;9.292;2023-03-23T05:30:47;3.13;;;0.90;;
74459;SDS011;62902;48.854;9.292;2023-03-23T05:33:14;3.42;;;1.00;;
74459;SDS011;62902;48.854;9.292;2023-03-23T05:35:47;2.80;;;1.20;;
74459;SDS011;62902;48.854;9.292;2023-03-23T05:38:15;3.45;;;0.93;;
74459;SDS011;62902;48.854;9.292;2023-03-23T05:40:42;2.55;;;1.10;;
74459;SDS011;62902;48.854;9.292;2023-03-23T05:43:12;3.97;;;1.05;;
74459;SDS011;62902;48.854;9.292;2023-03-23T05:45:46;4.05;;;1.38;;
74459;SDS011;62902;48.854;9.292;2023-03-23T05:48:12;2.45;;;1.02;;
74459;SDS011;62902;48.854;9.292;2023-03-23T05:50:37;1.90;;;0.85;;
74459;SDS011;62902;48.854;9.292;2023-03-23T05:53:03;3.05;;;1.13;;
74459;SDS011;62902;48.854;9.292;2023-03-23T05:55:31;3.42;;;1.00;;
74459;SDS011;62902;48.854;9.292;2023-03-23T05:58:07;2.10;;;0.98;;
74459;SDS011;62902;48.854;9.292;2023-03-23T06:00:35;5.03;;;1.13;;
74459;SDS011;62902;48.854;9.292;2023-03-23T06:03:11;2.95;;;1.00;;
74459;SDS011;62902;48.854;9.292;2023-03-23T06:05:47;3.50;;;1.20;;
74459;SDS011;62902;48.854;9.292;2023-03-23T06:08:16;2.53;;;1.15;;
74459;SDS011;62902;48.854;9.292;2023-03-23T06:10:42;3.03;;;1.00;;
74459;SDS011;62902;48.854;9.292;2023-03-23T06:13:08;3.22;;;1.10;;
74459;SDS011;62902;48.854;9.292;2023-03-23T06:15:44;2.47;;;1.13;;
74459;SDS011;62902;48.854;9.292;2023-03-23T06:18:17;3.88;;;1.38;;
74459;SDS011;62902;48.854;9.292;2023-03-23T06:20:50;2.92;;;1.15;;
74459;SDS011;62902;48.854;9.292;2023-03-23T06:23:39;4.32;;;1.60;;
74459;SDS011;62902;48.854;9.292;2023-03-23T06:26:06;3.13;;;1.15;;
74459;SDS011;62902;48.854;9.292;2023-03-23T06:28:33;2.55;;;1.17;;
74459;SDS011;62902;48.854;9.292;2023-03-23T06:31:00;2.28;;;1.13;;
74459;SDS011;62902;48.854;9.292;2023-03-23T06:33:26;2.55;;;1.13;;
74459;SDS011;62902;48.854;9.292;2023-03-23T06:36:18;3.65;;;1.20;;
74459;SDS011;62902;48.854;9.292;2023-03-23T06:38:54;3.78;;;1.50;;
74459;SDS011;62902;48.854;9.292;2023-03-23T06:41:28;3.83;;;1.27;;
74459;SDS011;62902;48.854;9.292;2023-03-23T06:43:53;3.75;;;1.30;;
74459;SDS011;62902;48.854;9.292;2023-03-23T06:46:25;5.95;;;1.27;;
74459;SDS011;62902;48.854;9.292;2023-03-23T06:48:51;4.05;;;1.63;;
74459;SDS011;62902;48.854;9.292;2023-03-23T06:51:21;4.32;;;1.77;;
74459;SDS011;62902;48.854;9.292;2023-03-23T06:53:50;4.32;;;1.38;;
74459;SDS011;62902;48.854;9.292;2023-03-23T06:56:15;5.60;;;1.70;;
74459;SDS011;62902;48.854;9.292;2023-03-23T06:58:42;6.20;;;2.13;;
74459;SDS011;62902;48.854;9.292;2023-03-23T07:01:08;4.15;;;1.77;;
74459;SDS011;62902;48.854;9.292;2023-03-23T07:03:39;10.60;;;2.15;;
74459;SDS011;62902;48.854;9.292;2023-03-23T07:06:07;342.20;;;155.32;;
74459;SDS011;62902;48.854;9.292;2023-03-23T07:08:37;398.05;;;182.93;;
74459;SDS011;62902;48.854;9.292;2023-03-23T07:11:05;250.73;;;114.63;;
74459;SDS011;62902;48.854;9.292;2023-03-23T07:13:31;4.00;;;1.42;;
74459;SDS011;62902;48.854;9.292;2023-03-23T07:15:59;4.85;;;1.85;;
74459;SDS011;62902;48.854;9.292;2023-03-23T07:18:26;3.35;;;1.42;;
74459;SDS011;62902;48.854;9.292;2023-03-23T07:23:23;4.90;;;1.58;;
74459;SDS011;62902;48.854;9.292;2023-03-23T07:26:09;4.93;;;1.55;;
74459;SDS011;62902;48.854;9.292;2023-03-23T07:28:38;4.43;;;1.35;;
74459;SDS011;62902;48.854;9.292;2023-03-23T07:31:17;4.10;;;1.48;;
74459;SDS011;62902;48.854;9.292;2023-03-23T07:33:42;4.03;;;1.30;;
74459;SDS011;62902;48.854;9.292;2023-03-23T07:36:09;3.55;;;1.30;;
74459;SDS011;62902;48.854;9.292;2023-03-23T07:38:35;3.03;;;1.38;;
74459;SDS011;62902;48.854;9.292;2023-03-23T07:41:02;4.53;;;1.40;;
74459;SDS011;62902;48.854;9.292;2023-03-23T07:43:29;2.78;;;1.15;;
74459;SDS011;62902;48.854;9.292;2023-03-23T07:46:14;4.32;;;1.42;;
74459;SDS011;62902;48.854;9.292;2023-03-23T07:48:55;3.65;;;1.48;;
74459;SDS011;62902;48.854;9.292;2023-03-23T07:51:26;4.20;;;1.42;;
74459;SDS011;62902;48.854;9.292;2023-03-23T07:53:53;4.50;;;1.40;;
74459;SDS011;62902;48.854;9.292;2023-03-23T07:56:38;4.70;;;1.33;;
74459;SDS011;62902;48.854;9.292;2023-03-23T07:59:12;9.63;;;1.58;;
74459;SDS011;62902;48.854;9.292;2023-03-23T08:01:39;2.83;;;0.80;;
74459;SDS011;62902;48.854;9.292;2023-03-23T08:04:27;4.40;;;1.15;;
74459;SDS011;62902;48.854;9.292;2023-03-23T08:07:32;5.25;;;1.40;;
74459;SDS011;62902;48.854;9.292;2023-03-23T08:10:20;3.90;;;1.33;;
74459;SDS011;62902;48.854;9.292;2023-03-23T08:13:17;2.50;;;1.15;;
74459;SDS011;62902;48.854;9.292;2023-03-23T08:16:11;3.83;;;1.20;;
74459;SDS011;62902;48.854;9.292;2023-03-23T08:18:55;4.20;;;1.30;;
74459;SDS011;62902;48.854;9.292;2023-03-23T08:21:40;6.10;;;1.30;;
74459;SDS011;62902;48.854;9.292;2023-03-23T08:24:44;4.63;;;1.33;;
74459;SDS011;62902;48.854;9.292;2023-03-23T08:27:36;4.03;;;1.20;;
74459;SDS011;62902;48.854;9.292;2023-03-23T08:30:21;3.28;;;1.30;;
74459;SDS011;62902;48.854;9.292;2023-03-23T08:32:51;3.33;;;1.38;;
74459;SDS011;62902;48.854;9.292;2023-03-23T08:35:32;3.30;;;1.30;;
74459;SDS011;62902;48.854;9.292;2023-03-23T08:38:18;3.33;;;1.30;;
74459;SDS011;62902;48.854;9.292;2023-03-23T08:41:14;3.72;;;1.38;;
74459;SDS011;62902;48.854;9.292;2023-03-23T08:43:52;3.72;;;1.30;;
74459;SDS011;62902;48.854;9.292;2023-03-23T08:46:36;3.20;;;1.30;;
74459;SDS011;62902;48.854;9.292;2023-03-23T08:49:24;3.13;;;1.20;;
74459;SDS011;62902;48.854;9.292;2023-03-23T08:52:03;55.28;;;27.17;;
74459;SDS011;62902;48.854;9.292;2023-03-23T08:54:49;213.82;;;92.38;;
74459;SDS011;62902;48.854;9.292;2023-03-23T08:57:25;3.83;;;1.10;;
74459;SDS011;62902;48.854;9.292;2023-03-23T09:00:13;120.82;;;54.40;;
74459;SDS011;62902;48.854;9.292;2023-03-23T09:03:09;80.43;;;35.80;;
74459;SDS011;62902;48.854;9.292;2023-03-23T09:05:45;4.75;;;1.58;;
74459;SDS011;62902;48.854;9.292;2023-03-23T09:08:25;4.78;;;1.90;;
74459;SDS011;62902;48.854;9.292;2023-03-23T09:10:53;4.72;;;1.60;;
74459;SDS011;62902;48.854;9.292;2023-03-23T09:13:18;4.07;;;1.77;;
74459;SDS011;62902;48.854;9.292;2023-03-23T09:15:43;5.38;;;1.55;;
74459;SDS011;62902;48.854;9.292;2023-03-23T09:18:09;158.95;;;70.28;;
74459;SDS011;62902;48.854;9.292;2023-03-23T09:20:35;4.03;;;1.42;;
74459;SDS011;62902;48.854;9.292;2023-03-23T09:23:02;2.88;;;1.40;;
74459;SDS011;62902;48.854;9.292;2023-03-23T09:25:28;3.22;;;1.33;;
74459;SDS011;62902;48.854;9.292;2023-03-23T09:27:55;4.80;;;1.35;;
74459;SDS011;62902;48.854;9.292;2023-03-23T09:30:25;3.95;;;1.63;;
74459;SDS011;62902;48.854;9.292;2023-03-23T09:32:52;3.55;;;1.38;;
74459;SDS011;62902;48.854;9.292;2023-03-23T09:35:19;4.30;;;1.17;;
74459;SDS011;62902;48.854;9.292;2023-03-23T09:37:46;2.42;;;0.90;;
74459;SDS011;62902;48.854;9.292;2023-03-23T09:40:16;3.15;;;1.23;;
74459;SDS011;62902;48.854;9.292;2023-03-23T09:42:48;4.50;;;1.52;;
74459;SDS011;62902;48.854;9.292;2023-03-23T09:48:55;3.47;;;1.35;;
74459;SDS011;62902;48.854;9.292;2023-03-23T09:56:55;2.80;;;1.10;;
74459;SDS011;62902;48.854;9.292;2023-03-23T09:59:27;3.78;;;1.20;;
74459;SDS011;62902;48.854;9.292;2023-03-23T10:02:01;3.17;;;1.45;;
74459;SDS011;62902;48.854;9.292;2023-03-23T10:04:47;4.72;;;1.10;;
74459;SDS011;62902;48.854;9.292;2023-03-23T10:09:47;3.55;;;1.40;;
74459;SDS011;62902;48.854;9.292;2023-03-23T10:12:19;2.53;;;1.10;;
74459;SDS011;62902;48.854;9.292;2023-03-23T10:14:52;3.05;;;1.13;;
74459;SDS011;62902;48.854;9.292;2023-03-23T10:17:27;2.42;;;1.05;;
74459;SDS011;62902;48.854;9.292;2023-03-23T10:22:30;2.78;;;1.20;;
74459;SDS011;62902;48.854;9.292;2023-03-23T10:30:46;2.17;;;0.90;;
74459;SDS011;62902;48.854;9.292;2023-03-23T10:33:17;3.55;;;1.02;;
74459;SDS011;62902;48.854;9.292;2023-03-23T10:35:50;2.42;;;1.17;;
74459;SDS011;62902;48.854;9.292;2023-03-23T10:38:44;2.28;;;1.00;;
74459;SDS011;62902;48.854;9.292;2023-03-23T10:41:15;3.67;;;1.08;;
74459;SDS011;62902;48.854;9.292;2023-03-23T10:43:46;2.38;;;0.93;;
74459;SDS011;62902;48.854;9.292;2023-03-23T10:46:24;2.22;;;1.00;;
74459;SDS011;62902;48.854;9.292;2023-03-23T10:48:54;3.38;;;1.20;;
74459;SDS011;62902;48.854;9.292;2023-03-23T10:51:27;3.08;;;1.20;;
74459;SDS011;62902;48.854;9.292;2023-03-23T10:53:57;95.65;;;43.83;;
74459;SDS011;62902;48.854;9.292;2023-03-23T10:56:37;2.42;;;1.13;;
74459;SDS011;62902;48.854;9.292;2023-03-23T10:59:20;3.05;;;1.30;;
74459;SDS011;62902;48.854;9.292;2023-03-23T11:01:52;3.17;;;1.25;;
74459;SDS011;62902;48.854;9.292;2023-03-23T11:04:20;3.88;;;1.50;;
74459;SDS011;62902;48.854;9.292;2023-03-23T11:06:49;3.72;;;1.73;;
74459;SDS011;62902;48.854;9.292;2023-03-23T11:09:21;4.00;;;2.47;;
74459;SDS011;62902;48.854;9.292;2023-03-23T11:11:49;3.78;;;1.52;;
74459;SDS011;62902;48.854;9.292;2023-03-23T11:14:25;3.97;;;2.00;;
74459;SDS011;62902;48.854;9.292;2023-03-23T11:19:29;4.70;;;1.75;;
74459;SDS011;62902;48.854;9.292;2023-03-23T11:22:39;3.00;;;1.30;;
74459;SDS011;62902;48.854;9.292;2023-03-23T11:24:55;120.95;;;58.38;;
74459;SDS011;62902;48.854;9.292;2023-03-23T11:27:24;3.78;;;1.15;;
74459;SDS011;62902;48.854;9.292;2023-03-23T11:32:37;100.28;;;52.25;;
74459;SDS011;62902;48.854;9.292;2023-03-23T11:35:04;155.98;;;73.35;;
74459;SDS011;62902;48.854;9.292;2023-03-23T11:37:35;209.43;;;91.93;;
74459;SDS011;62902;48.854;9.292;2023-03-23T11:40:24;3.85;;;1.85;;
74459;SDS011;62902;48.854;9.292;2023-03-23T11:50:59;2.75;;;1.20;;
74459;SDS011;62902;48.854;9.292;2023-03-23T11:53:40;83.78;;;38.03;;
74459;SDS011;62902;48.854;9.292;2023-03-23T11:58:49;5.50;;;3.00;;
74459;SDS011;62902;48.854;9.292;2023-03-23T12:01:34;3.13;;;1.45;;
74459;SDS011;62902;48.854;9.292;2023-03-23T12:09:35;90.57;;;46.67;;
74459;SDS011;62902;48.854;9.292;2023-03-23T12:14:59;138.05;;;73.03;;
74459;SDS011;62902;48.854;9.292;2023-03-23T12:17:35;353.52;;;139.95;;
74459;SDS011;62902;48.854;9.292;2023-03-23T12:20:16;321.50;;;126.25;;
74459;SDS011;62902;48.854;9.292;2023-03-23T12:47:48;92.82;;;54.72;;
74459;SDS011;62902;48.854;9.292;2023-03-23T12:50:40;268.60;;;114.72;;
74459;SDS011;62902;48.854;9.292;2023-03-23T12:53:15;462.55;;;185.32;;
74459;SDS011;62902;48.854;9.292;2023-03-23T12:59:05;510.27;;;189.88;;
74459;SDS011;62902;48.854;9.292;2023-03-23T13:01:37;534.03;;;206.52;;
74459;SDS011;62902;48.854;9.292;2023-03-23T13:04:10;547.53;;;214.00;;
74459;SDS011;62902;48.854;9.292;2023-03-23T13:06:39;469.58;;;169.68;;
74459;SDS011;62902;48.854;9.292;2023-03-23T13:09:11;490.85;;;178.50;;
74459;SDS011;62902;48.854;9.292;2023-03-23T13:11:41;464.13;;;186.38;;
74459;SDS011;62902;48.854;9.292;2023-03-23T13:22:26;660.25;;;276.20;;
74459;SDS011;62902;48.854;9.292;2023-03-23T13:24:58;714.00;;;284.52;;
74459;SDS011;62902;48.854;9.292;2023-03-23T13:27:26;682.00;;;264.65;;
74459;SDS011;62902;48.854;9.292;2023-03-23T13:29:56;614.30;;;236.90;;
74459;SDS011;62902;48.854;9.292;2023-03-23T13:32:38;533.03;;;197.10;;
74459;SDS011;62902;48.854;9.292;2023-03-23T13:35:11;710.65;;;270.73;;
74459;SDS011;62902;48.854;9.292;2023-03-23T13:37:41;668.75;;;246.40;;
74459;SDS011;62902;48.854;9.292;2023-03-23T13:42:55;704.97;;;260.13;;
74459;SDS011;62902;48.854;9.292;2023-03-23T13:50:49;1151.60;;;452.55;;
74459;SDS011;62902;48.854;9.292;2023-03-23T13:53:30;1180.55;;;473.52;;
74459;SDS011;62902;48.854;9.292;2023-03-23T13:58:52;759.15;;;286.33;;
74459;SDS011;62902;48.854;9.292;2023-03-23T14:01:40;1137.10;;;415.05;;
74459;SDS011;62902;48.854;9.292;2023-03-23T14:04:14;1137.97;;;473.55;;
74459;SDS011;62902;48.854;9.292;2023-03-23T14:06:43;970.38;;;355.25;;
74459;SDS011;62902;48.854;9.292;2023-03-23T14:12:17;1349.45;;;508.67;;
74459;SDS011;62902;48.854;9.292;2023-03-23T14:14:46;1429.63;;;539.53;;
74459;SDS011;62902;48.854;9.292;2023-03-23T14:19:47;545.63;;;121.47;;
74459;SDS011;62902;48.854;9.292;2023-03-23T14:22:19;512.90;;;134.27;;
74459;SDS011;62902;48.854;9.292;2023-03-23T14:24:48;465.50;;;144.00;;
74459;SDS011;62902;48.854;9.292;2023-03-23T14:27:15;462.35;;;141.45;;
74459;SDS011;62902;48.854;9.292;2023-03-23T14:29:43;486.60;;;140.30;;
74459;SDS011;62902;48.854;9.292;2023-03-23T14:32:16;518.53;;;136.07;;
74459;SDS011;62902;48.854;9.292;2023-03-23T14:34:43;501.50;;;137.82;;
74459;SDS011;62902;48.854;9.292;2023-03-23T14:37:12;513.10;;;140.05;;
74459;SDS011;62902;48.854;9.292;2023-03-23T14:39:38;443.60;;;163.25;;
74459;SDS011;62902;48.854;9.292;2023-03-23T14:44:32;396.30;;;201.00;;
74459;SDS011;62902;48.854;9.292;2023-03-23T14:47:02;471.93;;;151.33;;
74459;SDS011;62902;48.854;9.292;2023-03-23T14:49:30;393.45;;;170.55;;
74459;SDS011;62902;48.854;9.292;2023-03-23T14:56:54;385.85;;;201.10;;
74459;SDS011;62902;48.854;9.292;2023-03-23T15:09:07;460.80;;;144.10;;
74459;SDS011;62902;48.854;9.292;2023-03-23T15:11:37;519.80;;;129.38;;
74459;SDS011;62902;48.854;9.292;2023-03-23T15:16:47;567.88;;;120.80;;
74459;SDS011;62902;48.854;9.292;2023-03-23T15:19:17;519.97;;;132.10;;
74459;SDS011;62902;48.854;9.292;2023-03-23T15:21:47;467.97;;;138.43;;
74459;SDS011;62902;48.854;9.292;2023-03-23T15:24:21;492.05;;;134.80;;
74459;SDS011;62902;48.854;9.292;2023-03-23T15:26:52;679.80;;;169.50;;
74459;SDS011;62902;48.854;9.292;2023-03-23T15:29:19;575.15;;;127.40;;
74459;SDS011;62902;48.854;9.292;2023-03-23T15:31:48;542.85;;;132.00;;
74459;SDS011;62902;48.854;9.292;2023-03-23T15:34:33;416.80;;;146.27;;
74459;SDS011;62902;48.854;9.292;2023-03-23T15:37:05;5.47;;;2.15;;
74459;SDS011;62902;48.854;9.292;2023-03-23T15:39:40;6.95;;;3.05;;
74459;SDS011;62902;48.854;9.292;2023-03-23T15:44:32;1616.00;;;538.20;;
74459;SDS011;62902;48.854;9.292;2023-03-23T15:49:44;1213.25;;;442.08;;
74459;SDS011;62902;48.854;9.292;2023-03-23T15:52:12;1092.90;;;416.88;;
74459;SDS011;62902;48.854;9.292;2023-03-23T15:54:38;944.65;;;358.85;;
74459;SDS011;62902;48.854;9.292;2023-03-23T15:57:11;939.75;;;340.00;;
74459;SDS011;62902;48.854;9.292;2023-03-23T15:59:37;622.50;;;241.18;;
74459;SDS011;62902;48.854;9.292;2023-03-23T16:02:03;856.58;;;329.90;;
74459;SDS011;62902;48.854;9.292;2023-03-23T16:04:30;1030.05;;;384.30;;
74459;SDS011;62902;48.854;9.292;2023-03-23T16:06:58;1280.40;;;476.50;;
74459;SDS011;62902;48.854;9.292;2023-03-23T16:09:25;1277.43;;;303.05;;
74459;SDS011;62902;48.854;9.292;2023-03-23T16:11:52;880.63;;;336.42;;
74459;SDS011;62902;48.854;9.292;2023-03-23T16:14:18;701.28;;;257.80;;
74459;SDS011;62902;48.854;9.292;2023-03-23T16:16:46;757.60;;;288.58;;
74459;SDS011;62902;48.854;9.292;2023-03-23T16:19:16;443.13;;;162.15;;
74459;SDS011;62902;48.854;9.292;2023-03-23T16:21:45;366.92;;;134.15;;
74459;SDS011;62902;48.854;9.292;2023-03-23T16:24:12;451.02;;;163.85;;
74459;SDS011;62902;48.854;9.292;2023-03-23T16:26:38;463.17;;;178.38;;
74459;SDS011;62902;48.854;9.292;2023-03-23T16:29:12;631.05;;;244.50;;
74459;SDS011;62902;48.854;9.292;2023-03-23T16:31:59;373.58;;;139.48;;
74459;SDS011;62902;48.854;9.292;2023-03-23T16:34:26;619.10;;;236.77;;
74459;SDS011;62902;48.854;9.292;2023-03-23T16:36:55;671.58;;;261.65;;
74459;SDS011;62902;48.854;9.292;2023-03-23T16:39:21;662.25;;;255.75;;
74459;SDS011;62902;48.854;9.292;2023-03-23T16:41:48;605.67;;;228.63;;
74459;SDS011;62902;48.854;9.292;2023-03-23T16:44:15;829.80;;;325.98;;
74459;SDS011;62902;48.854;9.292;2023-03-23T16:46:41;855.80;;;331.05;;
74459;SDS011;62902;48.854;9.292;2023-03-23T16:49:08;695.25;;;271.63;;
74459;SDS011;62902;48.854;9.292;2023-03-23T16:51:35;533.83;;;201.00;;
74459;SDS011;62902;48.854;9.292;2023-03-23T16:54:01;532.30;;;209.88;;
74459;SDS011;62902;48.854;9.292;2023-03-23T16:56:28;239.43;;;101.35;;
74459;SDS011;62902;48.854;9.292;2023-03-23T16:58:54;259.80;;;110.97;;
74459;SDS011;62902;48.854;9.292;2023-03-23T17:01:21;161.15;;;79.00;;
74459;SDS011;62902;48.854;9.292;2023-03-23T17:03:48;215.95;;;94.07;;
74459;SDS011;62902;48.854;9.292;2023-03-23T17:06:14;351.85;;;129.52;;
74459;SDS011;62902;48.854;9.292;2023-03-23T17:08:42;305.85;;;118.75;;
74459;SDS011;62902;48.854;9.292;2023-03-23T17:11:09;294.33;;;116.40;;
74459;SDS011;62902;48.854;9.292;2023-03-23T17:13:36;332.08;;;130.00;;
74459;SDS011;62902;48.854;9.292;2023-03-23T17:16:02;338.77;;;130.50;;
74459;SDS011;62902;48.854;9.292;2023-03-23T17:18:30;307.75;;;120.00;;
74459;SDS011;62902;48.854;9.292;2023-03-23T17:20:57;449.85;;;168.52;;
74459;SDS011;62902;48.854;9.292;2023-03-23T17:23:23;248.80;;;103.03;;
74459;SDS011;62902;48.854;9.292;2023-03-23T17:25:50;458.90;;;167.02;;
74459;SDS011;62902;48.854;9.292;2023-03-23T17:28:17;434.85;;;156.70;;
74459;SDS011;62902;48.854;9.292;2023-03-23T17:30:46;469.35;;;173.23;;
74459;SDS011;62902;48.854;9.292;2023-03-23T17:33:12;495.58;;;188.75;;
74459;SDS011;62902;48.854;9.292;2023-03-23T17:35:40;536.22;;;204.38;;